createdAt,value
2017-06-10T00:01:38.952Z,16.40
2017-06-10T00:04:06.460Z,16.40
2017-06-10T00:06:33.963Z,16.40
2017-06-10T00:09:01.478Z,16.40
2017-06-10T00:11:28.985Z,16.10
2017-06-10T00:13:56.889Z,16.20
2017-06-10T00:16:24.397Z,16.20
2017-06-10T00:18:51.903Z,16.60
2017-06-10T00:21:20.200Z,16.80
2017-06-10T00:23:47.733Z,16.70
2017-06-10T00:26:15.614Z,16.70
2017-06-10T00:28:43.894Z,16.70
2017-06-10T00:31:12.172Z,16.60
2017-06-10T00:33:39.707Z,16.60
2017-06-10T00:36:07.310Z,16.50
2017-06-10T00:38:35.084Z,16.50
2017-06-10T00:41:02.588Z,16.60
2017-06-10T00:43:30.093Z,16.60
2017-06-10T00:45:57.619Z,16.60
2017-06-10T00:48:25.120Z,16.80
2017-06-10T00:50:52.930Z,16.70
2017-06-10T00:53:20.440Z,16.70
2017-06-10T00:55:47.937Z,16.80
2017-06-10T00:58:15.456Z,16.80
2017-06-10T01:00:42.953Z,16.70
2017-06-10T01:03:10.853Z,16.60
2017-06-10T01:05:39.137Z,16.80
2017-06-10T01:08:06.624Z,16.80
2017-06-10T01:10:34.152Z,16.80
2017-06-10T01:13:01.639Z,16.90
2017-06-10T01:15:29.552Z,16.90
2017-06-10T01:17:57.047Z,16.90
2017-06-10T01:20:24.555Z,17.00
2017-06-10T01:22:52.065Z,16.90
2017-06-10T01:25:20.319Z,16.60
2017-06-10T01:27:48.161Z,16.60
2017-06-10T01:30:15.661Z,16.80
2017-06-10T01:32:43.926Z,16.30
2017-06-10T01:35:11.437Z,16.30
2017-06-10T01:37:38.937Z,16.20
2017-06-10T01:40:06.809Z,16.10
2017-06-10T01:42:34.308Z,16.30
2017-06-10T01:45:01.804Z,16.40
2017-06-10T01:47:29.309Z,16.20
2017-06-10T01:49:57.566Z,16.30
2017-06-10T01:52:25.424Z,16.30
2017-06-10T01:54:52.912Z,16.50
2017-06-10T01:57:20.400Z,16.50
2017-06-10T01:59:47.896Z,16.40
2017-06-10T02:02:15.387Z,16.30
2017-06-10T02:04:44.058Z,16.20
2017-06-10T02:07:11.572Z,16.20
2017-06-10T02:09:39.069Z,16.10
2017-06-10T02:12:06.594Z,16.30
2017-06-10T02:14:34.085Z,16.20
2017-06-10T02:17:01.963Z,16.30
2017-06-10T02:19:29.471Z,16.10
2017-06-10T02:21:56.964Z,16.00
2017-06-10T02:24:24.475Z,16.10
2017-06-10T02:26:51.974Z,16.20
2017-06-10T02:29:19.884Z,16.00
2017-06-10T02:31:48.142Z,16.20
2017-06-10T02:34:15.644Z,16.20
2017-06-10T02:36:43.169Z,16.10
2017-06-10T02:39:11.464Z,16.40
2017-06-10T02:41:39.385Z,16.40
2017-06-10T02:44:06.891Z,16.50
2017-06-10T02:46:35.149Z,16.70
2017-06-10T02:49:02.679Z,16.70
2017-06-10T02:51:31.308Z,16.30
2017-06-10T02:53:59.849Z,16.40
2017-06-10T02:56:27.349Z,16.40
2017-06-10T02:58:55.613Z,16.50
2017-06-10T03:01:23.129Z,16.60
2017-06-10T03:03:50.621Z,16.40
2017-06-10T03:06:18.428Z,16.50
2017-06-10T03:08:45.933Z,16.30
2017-06-10T03:11:13.449Z,16.10
2017-06-10T03:13:41.278Z,16.00
2017-06-10T03:16:08.779Z,16.10
2017-06-10T03:18:36.263Z,16.00
2017-06-10T03:21:03.821Z,15.80
2017-06-10T03:23:31.323Z,15.90
2017-06-10T03:25:59.597Z,15.60
2017-06-10T03:28:27.117Z,15.60
2017-06-10T03:30:55.469Z,15.60
2017-06-10T03:33:23.401Z,15.60
2017-06-10T03:35:50.904Z,15.60
2017-06-10T03:38:18.404Z,15.80
2017-06-10T03:40:45.908Z,15.80
2017-06-10T03:43:13.418Z,15.60
2017-06-10T03:45:41.206Z,15.40
2017-06-10T03:48:08.728Z,15.60
2017-06-10T03:50:36.248Z,15.60
2017-06-10T03:53:04.528Z,15.70
2017-06-10T03:55:32.028Z,15.70
2017-06-10T03:57:59.912Z,15.70
2017-06-10T04:00:27.404Z,15.60
2017-06-10T04:02:54.895Z,15.70
2017-06-10T04:05:22.396Z,15.60
2017-06-10T04:07:49.888Z,15.80
2017-06-10T04:10:18.533Z,15.60
2017-06-10T04:12:46.029Z,15.50
2017-06-10T04:15:13.544Z,15.50
2017-06-10T04:17:41.067Z,15.60
2017-06-10T04:20:08.560Z,15.80
2017-06-10T04:22:36.445Z,15.80
2017-06-10T04:25:03.948Z,15.90
2017-06-10T04:27:31.445Z,15.70
2017-06-10T04:29:58.960Z,15.90
2017-06-10T04:32:26.461Z,15.90
2017-06-10T04:34:54.228Z,15.80
2017-06-10T04:37:21.724Z,15.90
2017-06-10T04:39:49.216Z,15.80
2017-06-10T04:42:16.716Z,15.80
2017-06-10T04:44:44.232Z,15.70
2017-06-10T04:47:12.167Z,15.80
2017-06-10T04:49:39.654Z,16.00
2017-06-10T04:52:07.159Z,16.20
2017-06-10T04:54:34.678Z,16.20
2017-06-10T04:57:02.159Z,16.60
2017-06-10T04:59:29.930Z,16.60
2017-06-10T05:01:57.432Z,16.40
2017-06-10T05:04:25.691Z,16.50
2017-06-10T05:06:53.200Z,16.50
2017-06-10T05:09:20.692Z,16.40
2017-06-10T05:11:48.577Z,16.30
2017-06-10T05:14:16.072Z,16.50
2017-06-10T05:16:43.572Z,16.50
2017-06-10T05:19:11.088Z,16.30
2017-06-10T05:21:38.598Z,16.40
2017-06-10T05:24:06.486Z,16.50
2017-06-10T05:26:33.981Z,16.70
2017-06-10T05:29:01.489Z,16.80
2017-06-10T05:31:29.012Z,16.80
2017-06-10T05:33:56.529Z,16.70
2017-06-10T05:36:25.099Z,16.80
2017-06-10T05:38:52.607Z,16.70
2017-06-10T05:41:20.118Z,16.90
2017-06-10T05:43:47.669Z,17.00
2017-06-10T05:46:15.175Z,16.90
2017-06-10T05:48:43.016Z,17.10
2017-06-10T05:51:10.512Z,17.10
2017-06-10T05:53:38.011Z,17.20
2017-06-10T05:56:05.528Z,17.00
2017-06-10T05:58:33.033Z,17.30
2017-06-10T06:01:01.440Z,17.70
2017-06-10T06:03:29.700Z,18.00
2017-06-10T06:05:57.205Z,18.00
2017-06-10T06:08:24.750Z,18.20
2017-06-10T06:10:52.255Z,17.80
2017-06-10T06:13:20.027Z,17.60
2017-06-10T06:15:47.566Z,17.50
2017-06-10T06:18:15.064Z,17.80
2017-06-10T06:20:42.582Z,18.30
2017-06-10T06:23:10.080Z,18.20
2017-06-10T06:25:37.941Z,18.70
2017-06-10T06:28:05.459Z,18.50
2017-06-10T06:30:32.986Z,18.40
2017-06-10T06:33:00.509Z,17.90
2017-06-10T06:35:27.998Z,18.20
2017-06-10T06:37:55.771Z,18.40
2017-06-10T06:40:24.067Z,18.60
2017-06-10T06:42:51.565Z,18.60
2017-06-10T06:45:19.080Z,19.10
2017-06-10T06:47:46.592Z,19.40
2017-06-10T06:50:14.369Z,19.40
2017-06-10T06:52:41.872Z,19.60
2017-06-10T06:55:10.299Z,19.60
2017-06-10T06:57:37.824Z,19.40
2017-06-10T07:00:05.329Z,19.20
2017-06-10T07:02:33.204Z,18.90
2017-06-10T07:05:00.725Z,19.40
2017-06-10T07:07:28.222Z,19.40
2017-06-10T07:09:55.741Z,19.70
2017-06-10T07:12:23.232Z,19.70
2017-06-10T07:14:50.997Z,19.80
2017-06-10T07:17:19.665Z,19.20
2017-06-10T07:19:47.167Z,19.20
2017-06-10T07:22:15.464Z,19.40
2017-06-10T07:24:42.993Z,19.30
2017-06-10T07:27:10.782Z,19.60
2017-06-10T07:29:39.157Z,19.90
2017-06-10T07:32:07.426Z,20.00
2017-06-10T07:34:34.954Z,20.00
2017-06-10T07:37:02.483Z,20.00
2017-06-10T07:39:30.395Z,20.00
2017-06-10T07:41:57.887Z,20.20
2017-06-10T07:44:25.380Z,20.50
2017-06-10T07:46:52.893Z,20.70
2017-06-10T07:49:20.428Z,20.30
2017-06-10T07:51:48.005Z,20.10
2017-06-10T07:54:16.704Z,20.00
2017-06-10T07:56:44.241Z,20.00
2017-06-10T07:59:12.033Z,20.70
2017-06-10T08:01:40.301Z,21.20
2017-06-10T08:04:08.567Z,20.70
2017-06-10T08:06:36.161Z,20.70
2017-06-10T08:09:03.699Z,20.80
2017-06-10T08:11:32.266Z,21.60
2017-06-10T08:13:59.769Z,21.50
2017-06-10T08:16:27.284Z,21.00
2017-06-10T08:18:54.819Z,20.90
2017-06-10T08:21:22.336Z,20.20
2017-06-10T08:23:50.265Z,20.30
2017-06-10T08:26:17.763Z,20.90
2017-06-10T08:28:45.260Z,21.10
2017-06-10T08:31:12.797Z,21.60
2017-06-10T08:33:40.312Z,21.80
2017-06-10T08:36:08.212Z,22.00
2017-06-10T08:38:35.712Z,22.10
2017-06-10T08:41:03.227Z,22.20
2017-06-10T08:43:30.744Z,22.90
2017-06-10T08:45:58.242Z,22.90
2017-06-10T08:48:26.890Z,22.10
2017-06-10T08:50:54.397Z,22.10
2017-06-10T08:53:21.907Z,21.60
2017-06-10T08:55:49.452Z,22.00
2017-06-10T08:58:16.971Z,22.40
2017-06-10T09:00:44.829Z,23.20
2017-06-10T09:03:12.334Z,23.40
2017-06-10T09:05:39.843Z,22.80
2017-06-10T09:08:11.001Z,22.30
2017-06-10T09:10:38.536Z,22.30
2017-06-10T09:13:07.205Z,22.80
2017-06-10T09:15:34.713Z,22.80
2017-06-10T09:18:02.213Z,22.20
2017-06-10T09:20:29.744Z,22.00
2017-06-10T09:22:57.269Z,22.10
2017-06-10T09:25:25.941Z,21.90
2017-06-10T09:27:53.449Z,21.90
2017-06-10T09:30:20.967Z,23.50
2017-06-10T09:32:48.502Z,22.20
2017-06-10T09:35:16.021Z,23.00
2017-06-10T09:37:43.836Z,23.80
2017-06-10T09:40:11.353Z,23.50
2017-06-10T09:42:38.879Z,24.10
2017-06-10T09:45:06.404Z,23.60
2017-06-10T09:47:33.896Z,23.60
2017-06-10T09:50:02.557Z,22.40
2017-06-10T09:52:30.071Z,22.40
2017-06-10T09:54:57.615Z,23.20
2017-06-10T09:57:25.150Z,23.40
2017-06-10T09:59:52.658Z,22.40
2017-06-10T10:02:20.593Z,22.30
2017-06-10T10:04:48.865Z,23.30
2017-06-10T10:07:16.404Z,23.30
2017-06-10T10:09:43.908Z,23.50
2017-06-10T10:12:11.427Z,23.00
2017-06-10T10:14:39.233Z,22.40
2017-06-10T10:17:06.759Z,23.20
2017-06-10T10:19:34.288Z,24.20
2017-06-10T10:22:01.804Z,23.80
2017-06-10T10:24:29.311Z,23.70
2017-06-10T10:26:57.198Z,24.00
2017-06-10T10:29:24.701Z,24.00
2017-06-10T10:31:52.193Z,23.90
2017-06-10T10:34:19.731Z,23.60
2017-06-10T10:36:48.421Z,24.60
2017-06-10T10:39:16.346Z,24.50
2017-06-10T10:41:43.853Z,23.60
2017-06-10T10:44:11.351Z,24.70
2017-06-10T10:46:38.868Z,25.30
2017-06-10T10:49:06.370Z,24.90
2017-06-10T10:51:34.170Z,25.60
2017-06-10T10:54:01.674Z,25.00
2017-06-10T10:56:29.188Z,25.70
2017-06-10T10:58:56.700Z,24.50
2017-06-10T11:01:24.203Z,25.00
2017-06-10T11:03:52.884Z,25.10
2017-06-10T11:06:20.406Z,25.00
2017-06-10T11:08:47.936Z,24.70
2017-06-10T11:11:15.481Z,24.30
2017-06-10T11:13:42.980Z,25.30
2017-06-10T11:16:10.895Z,25.10
2017-06-10T11:18:38.405Z,26.30
2017-06-10T11:21:07.058Z,25.80
2017-06-10T11:23:34.575Z,25.70
2017-06-10T11:26:02.081Z,24.90
2017-06-10T11:28:30.021Z,25.70
2017-06-10T11:30:58.288Z,24.70
2017-06-10T11:33:26.572Z,25.20
2017-06-10T11:35:55.225Z,24.70
2017-06-10T11:38:22.736Z,24.80
2017-06-10T11:40:50.668Z,24.70
2017-06-10T11:43:18.169Z,23.70
2017-06-10T11:45:45.690Z,23.80
2017-06-10T11:48:13.972Z,24.30
2017-06-10T11:50:42.632Z,24.70
2017-06-10T11:53:10.525Z,24.70
2017-06-10T11:55:38.036Z,24.70
2017-06-10T11:58:05.545Z,25.00
2017-06-10T12:00:33.056Z,25.10
2017-06-10T12:03:00.566Z,25.30
2017-06-10T12:05:28.421Z,26.00
2017-06-10T12:07:55.952Z,25.60
2017-06-10T12:10:23.469Z,24.50
2017-06-10T12:12:51.757Z,24.50
2017-06-10T12:15:19.251Z,24.40
2017-06-10T12:17:46.765Z,24.80
2017-06-10T12:20:14.302Z,24.30
2017-06-10T12:22:41.827Z,24.50
2017-06-10T12:25:09.388Z,25.10
2017-06-10T12:27:36.912Z,24.90
2017-06-10T12:30:04.425Z,25.10
2017-06-10T12:32:32.313Z,25.80
2017-06-10T12:34:59.815Z,26.90
2017-06-10T12:37:27.524Z,26.80
2017-06-10T12:39:55.040Z,26.40
2017-06-10T12:42:22.559Z,25.80
2017-06-10T12:44:51.235Z,24.50
2017-06-10T12:47:18.732Z,24.40
2017-06-10T12:49:48.177Z,25.30
2017-06-10T12:52:15.705Z,25.30
2017-06-10T12:54:43.211Z,25.20
2017-06-10T12:57:11.004Z,25.10
2017-06-10T12:59:39.283Z,25.60
2017-06-10T13:02:07.561Z,25.60
2017-06-10T13:04:35.082Z,25.60
2017-06-10T13:07:02.597Z,25.20
2017-06-10T13:09:30.374Z,26.20
2017-06-10T13:11:57.881Z,25.20
2017-06-10T13:14:25.381Z,25.40
2017-06-10T13:16:52.886Z,25.60
2017-06-10T13:19:20.401Z,26.20
2017-06-10T13:21:49.466Z,25.10
2017-06-10T13:24:17.735Z,25.60
2017-06-10T13:26:45.246Z,25.60
2017-06-10T13:29:13.883Z,25.40
2017-06-10T13:31:41.380Z,25.40
2017-06-10T13:34:09.304Z,25.40
2017-06-10T13:36:37.940Z,25.30
2017-06-10T13:39:05.449Z,25.30
2017-06-10T13:41:33.012Z,25.40
2017-06-10T13:44:00.553Z,26.00
2017-06-10T13:46:28.329Z,26.40
2017-06-10T13:48:55.872Z,26.10
2017-06-10T13:51:23.398Z,25.50
2017-06-10T13:53:52.335Z,26.20
2017-06-10T13:56:19.878Z,25.70
2017-06-10T13:58:47.670Z,26.40
2017-06-10T14:01:15.208Z,27.00
2017-06-10T14:03:42.720Z,26.70
2017-06-10T14:06:10.233Z,26.10
2017-06-10T14:08:37.749Z,26.20
2017-06-10T14:11:05.529Z,26.30
2017-06-10T14:13:33.062Z,25.60
2017-06-10T14:16:01.346Z,26.70
2017-06-10T14:18:28.873Z,26.70
2017-06-10T14:20:56.401Z,25.50
2017-06-10T14:23:24.232Z,26.20
2017-06-10T14:25:51.741Z,26.80
2017-06-10T14:28:19.250Z,26.60
2017-06-10T14:30:46.766Z,26.50
2017-06-10T14:33:15.041Z,26.30
2017-06-10T14:35:42.842Z,25.80
2017-06-10T14:38:10.340Z,26.10
2017-06-10T14:40:37.856Z,26.10
2017-06-10T14:43:06.136Z,25.60
2017-06-10T14:45:33.638Z,25.60
2017-06-10T14:48:01.542Z,25.90
2017-06-10T14:50:29.054Z,25.80
2017-06-10T14:52:56.561Z,25.80
2017-06-10T14:55:24.099Z,26.10
2017-06-10T14:57:51.601Z,26.20
2017-06-10T15:00:20.273Z,26.20
2017-06-10T15:02:50.728Z,26.10
2017-06-10T15:05:18.241Z,26.50
2017-06-10T15:07:45.763Z,26.20
2017-06-10T15:10:13.276Z,25.80
2017-06-10T15:12:41.115Z,26.10
2017-06-10T15:15:08.638Z,26.50
2017-06-10T15:17:36.154Z,26.70
2017-06-10T15:20:03.685Z,26.40
2017-06-10T15:22:32.177Z,25.70
2017-06-10T15:24:59.965Z,25.80
2017-06-10T15:27:27.467Z,25.50
2017-06-10T15:29:54.991Z,25.70
2017-06-10T15:32:26.038Z,25.30
2017-06-10T15:34:53.593Z,26.10
2017-06-10T15:37:21.470Z,25.80
2017-06-10T15:39:49.745Z,25.80
2017-06-10T15:42:17.249Z,25.80
2017-06-10T15:44:44.776Z,25.50
2017-06-10T15:47:12.277Z,25.20
2017-06-10T15:49:40.075Z,25.30
2017-06-10T15:52:07.613Z,24.80
2017-06-10T15:54:35.134Z,24.60
2017-06-10T15:57:02.666Z,24.60
2017-06-10T15:59:30.187Z,24.70
2017-06-10T16:01:58.119Z,25.30
2017-06-10T16:04:25.635Z,24.80
2017-06-10T16:06:53.128Z,24.50
2017-06-10T16:09:21.417Z,24.70
2017-06-10T16:11:49.680Z,24.70
2017-06-10T16:14:18.542Z,24.40
2017-06-10T16:16:46.040Z,24.40
2017-06-10T16:19:13.570Z,24.10
2017-06-10T16:21:41.490Z,23.80
2017-06-10T16:24:09.834Z,24.40
2017-06-10T16:26:38.107Z,24.30
2017-06-10T16:29:05.630Z,24.30
2017-06-10T16:31:33.129Z,24.00
2017-06-10T16:34:00.626Z,23.90
2017-06-10T16:36:29.149Z,24.00
2017-06-10T16:38:56.649Z,24.00
2017-06-10T16:41:24.506Z,23.50
2017-06-10T16:43:52.008Z,23.70
2017-06-10T16:46:19.512Z,23.60
2017-06-10T16:48:47.411Z,23.50
2017-06-10T16:51:14.949Z,23.50
2017-06-10T16:53:43.214Z,23.10
2017-06-10T16:56:10.721Z,23.00
2017-06-10T16:58:38.224Z,22.80
2017-06-10T17:01:06.860Z,22.90
2017-06-10T17:03:34.692Z,22.80
2017-06-10T17:06:02.203Z,23.40
2017-06-10T17:08:29.711Z,23.50
2017-06-10T17:10:58.013Z,23.30
2017-06-10T17:13:25.533Z,23.20
2017-06-10T17:15:53.054Z,22.80
2017-06-10T17:18:20.560Z,23.00
2017-06-10T17:20:48.490Z,23.10
2017-06-10T17:23:16.010Z,23.10
2017-06-10T17:25:44.296Z,23.20
2017-06-10T17:28:11.840Z,23.20
2017-06-10T17:30:40.128Z,23.10
2017-06-10T17:33:08.693Z,23.10
2017-06-10T17:35:36.255Z,23.10
2017-06-10T17:38:04.552Z,22.70
2017-06-10T17:40:32.370Z,22.70
2017-06-10T17:42:59.884Z,22.90
2017-06-10T17:45:27.417Z,23.10
2017-06-10T17:47:54.925Z,23.20
2017-06-10T17:50:22.429Z,23.30
2017-06-10T17:52:49.937Z,23.20
2017-06-10T17:55:17.457Z,23.30
2017-06-10T17:57:45.726Z,23.30
2017-06-10T18:00:13.621Z,23.30
2017-06-10T18:02:41.134Z,23.30
2017-06-10T18:05:08.652Z,23.20
2017-06-10T18:07:36.186Z,23.20
2017-06-10T18:10:04.493Z,22.90
2017-06-10T18:12:32.281Z,23.20
2017-06-10T18:14:59.807Z,23.30
2017-06-10T18:17:27.309Z,23.20
2017-06-10T18:19:54.828Z,23.20
2017-06-10T18:22:22.348Z,22.70
2017-06-10T18:24:50.216Z,23.00
2017-06-10T18:27:17.718Z,23.00
2017-06-10T18:29:45.204Z,23.10
2017-06-10T18:32:12.723Z,22.90
2017-06-10T18:34:40.228Z,22.70
2017-06-10T18:37:08.030Z,22.80
2017-06-10T18:39:35.547Z,22.70
2017-06-10T18:42:06.434Z,22.80
2017-06-10T18:44:33.954Z,22.80
2017-06-10T18:47:01.473Z,22.50
2017-06-10T18:49:29.288Z,22.60
2017-06-10T18:51:56.793Z,22.50
2017-06-10T18:54:25.074Z,22.40
2017-06-10T18:56:52.594Z,22.40
2017-06-10T18:59:20.097Z,22.60
2017-06-10T19:01:48.089Z,22.40
2017-06-10T19:04:15.613Z,22.60
2017-06-10T19:06:43.112Z,22.60
2017-06-10T19:09:10.629Z,22.50
2017-06-10T19:11:38.144Z,22.50
2017-06-10T19:14:06.063Z,22.40
2017-06-10T19:16:34.353Z,22.30
2017-06-10T19:19:01.871Z,22.40
2017-06-10T19:21:29.412Z,22.50
2017-06-10T19:23:56.904Z,22.40
2017-06-10T19:26:25.476Z,22.30
2017-06-10T19:28:52.990Z,22.20
2017-06-10T19:31:20.496Z,22.50
2017-06-10T19:33:48.040Z,22.30
2017-06-10T19:36:15.566Z,22.20
2017-06-10T19:38:43.496Z,22.20
2017-06-10T19:41:11.012Z,22.10
2017-06-10T19:43:38.509Z,22.20
2017-06-10T19:46:06.039Z,22.30
2017-06-10T19:48:33.560Z,21.90
2017-06-10T19:51:01.335Z,22.00
2017-06-10T19:53:28.865Z,22.10
2017-06-10T19:55:56.385Z,22.10
2017-06-10T19:58:23.916Z,22.10
2017-06-10T20:00:51.412Z,22.10
2017-06-10T20:03:19.196Z,21.90
2017-06-10T20:05:46.699Z,21.80
2017-06-10T20:08:14.209Z,21.80
2017-06-10T20:10:41.741Z,21.90
2017-06-10T20:13:09.257Z,21.80
2017-06-10T20:15:37.224Z,22.00
2017-06-10T20:18:05.512Z,21.80
2017-06-10T20:20:33.005Z,21.70
2017-06-10T20:23:00.519Z,22.00
2017-06-10T20:25:28.024Z,21.80
2017-06-10T20:27:55.927Z,21.90
2017-06-10T20:30:23.449Z,22.00
2017-06-10T20:32:50.962Z,22.00
2017-06-10T20:35:19.249Z,21.70
2017-06-10T20:37:46.766Z,21.70
2017-06-10T20:40:14.543Z,21.70
2017-06-10T20:42:42.054Z,21.70
2017-06-10T20:45:09.582Z,21.60
2017-06-10T20:47:37.857Z,21.80
2017-06-10T20:50:06.133Z,21.60
2017-06-10T20:52:34.705Z,21.60
2017-06-10T20:55:02.220Z,21.60
2017-06-10T20:57:29.754Z,21.60
2017-06-10T20:59:57.270Z,21.50
2017-06-10T21:02:24.781Z,21.40
2017-06-10T21:04:52.627Z,21.40
2017-06-10T21:07:20.148Z,21.40
2017-06-10T21:09:47.644Z,21.50
2017-06-10T21:12:15.173Z,21.40
2017-06-10T21:14:42.691Z,21.50
2017-06-10T21:17:10.489Z,21.60
2017-06-10T21:19:37.994Z,21.40
2017-06-10T21:22:06.261Z,21.30
2017-06-10T21:24:33.784Z,21.30
2017-06-10T21:27:01.306Z,21.40
2017-06-10T21:29:29.244Z,21.40
2017-06-10T21:31:56.737Z,21.50
2017-06-10T21:34:24.270Z,21.40
2017-06-10T21:36:51.792Z,21.50
2017-06-10T21:39:19.310Z,21.50
2017-06-10T21:41:47.242Z,21.40
2017-06-10T21:44:14.759Z,21.50
2017-06-10T21:46:42.265Z,21.40
2017-06-10T21:49:09.791Z,21.30
2017-06-10T21:51:37.290Z,21.40
2017-06-10T21:54:05.989Z,21.50
2017-06-10T21:56:34.283Z,21.50
2017-06-10T21:59:01.776Z,21.40
2017-06-10T22:01:29.301Z,21.30
2017-06-10T22:03:56.813Z,21.30
2017-06-10T22:06:24.583Z,21.30
2017-06-10T22:08:52.089Z,21.00
2017-06-10T22:11:19.713Z,21.00
2017-06-10T22:13:47.255Z,20.80
2017-06-10T22:16:14.769Z,20.90
2017-06-10T22:18:42.625Z,20.80
2017-06-10T22:21:10.142Z,20.90
2017-06-10T22:23:37.677Z,21.10
2017-06-10T22:26:05.201Z,21.30
2017-06-10T22:28:32.844Z,21.30
2017-06-10T22:31:01.167Z,20.90
2017-06-10T22:33:28.701Z,20.90
2017-06-10T22:35:56.970Z,21.00
2017-06-10T22:38:24.499Z,21.00
2017-06-10T22:40:52.027Z,21.00
2017-06-10T22:43:19.550Z,20.80
2017-06-10T22:45:47.835Z,20.80
2017-06-10T22:48:16.134Z,20.60
2017-06-10T22:50:43.692Z,20.60
2017-06-10T22:53:11.198Z,20.50
2017-06-10T22:55:38.709Z,20.60
2017-06-10T22:58:06.235Z,20.60
2017-06-10T23:00:33.745Z,20.60
2017-06-10T23:03:01.272Z,20.60
2017-06-10T23:05:28.782Z,20.70
2017-06-10T23:07:56.286Z,20.70
2017-06-10T23:10:23.793Z,20.50
2017-06-10T23:12:51.300Z,20.50
2017-06-10T23:15:18.838Z,20.50
2017-06-10T23:17:46.347Z,20.50
2017-06-10T23:20:13.841Z,20.70
2017-06-10T23:22:41.376Z,20.50
2017-06-10T23:25:08.881Z,20.40
2017-06-10T23:27:36.418Z,20.50
2017-06-10T23:30:03.930Z,20.50
2017-06-10T23:32:31.425Z,20.40
2017-06-10T23:34:58.961Z,20.30
2017-06-10T23:37:26.474Z,20.20
2017-06-10T23:39:54.448Z,20.20
2017-06-10T23:42:21.975Z,20.20
2017-06-10T23:44:49.476Z,20.40
2017-06-10T23:47:17.776Z,20.40
2017-06-10T23:49:45.273Z,20.40
2017-06-10T23:52:12.816Z,20.40
2017-06-10T23:54:40.331Z,20.10
2017-06-10T23:57:07.870Z,20.20
2017-06-10T23:59:35.388Z,20.30
